createdAt,value
2018-12-16T00:00:38.258Z,-3.84
2018-12-16T00:03:05.838Z,-3.84
2018-12-16T00:05:33.461Z,-3.88
2018-12-16T00:08:01.091Z,-3.79
2018-12-16T00:10:28.673Z,-3.74
2018-12-16T00:12:57.213Z,-3.81
2018-12-16T00:15:25.033Z,-3.80
2018-12-16T00:17:52.602Z,-3.73
2018-12-16T00:20:20.214Z,-3.65
2018-12-16T00:22:47.894Z,-3.61
2018-12-16T00:25:15.682Z,-3.57
2018-12-16T00:27:43.246Z,-3.51
2018-12-16T00:30:10.835Z,-3.59
2018-12-16T00:32:38.427Z,-3.59
2018-12-16T00:35:06.112Z,-3.57
2018-12-16T00:37:33.993Z,-3.55
2018-12-16T00:40:01.661Z,-3.52
2018-12-16T00:42:29.247Z,-3.57
2018-12-16T00:44:56.803Z,-3.56
2018-12-16T00:47:24.364Z,-3.49
2018-12-16T00:49:52.005Z,-3.51
2018-12-16T00:52:19.581Z,-3.44
2018-12-16T00:54:47.277Z,-3.45
2018-12-16T00:57:14.866Z,-3.35
2018-12-16T00:59:42.407Z,-3.26
2018-12-16T01:02:15.823Z,-3.28
2018-12-16T01:04:43.397Z,-3.28
2018-12-16T01:07:10.983Z,-3.30
2018-12-16T01:09:38.582Z,-3.27
2018-12-16T01:12:06.734Z,-3.21
2018-12-16T01:14:34.318Z,-3.26
2018-12-16T01:17:02.006Z,-3.22
2018-12-16T01:19:29.885Z,-3.13
2018-12-16T01:21:57.516Z,-3.14
2018-12-16T01:24:25.130Z,-2.97
2018-12-16T01:26:52.725Z,-2.95
2018-12-16T01:29:20.297Z,-3.04
2018-12-16T01:31:47.831Z,-3.06
2018-12-16T01:34:15.458Z,-2.88
2018-12-16T01:36:43.033Z,-2.76
2018-12-16T01:39:10.646Z,-2.64
2018-12-16T01:41:38.313Z,-2.73
2018-12-16T01:44:05.849Z,-2.81
2018-12-16T01:46:33.447Z,-2.81
2018-12-16T01:49:00.988Z,-2.74
2018-12-16T01:51:28.604Z,-2.71
2018-12-16T01:53:56.183Z,-2.58
2018-12-16T01:56:23.709Z,-2.60
2018-12-16T01:58:51.266Z,-2.56
2018-12-16T02:01:18.863Z,-2.55
2018-12-16T02:03:46.396Z,-2.48
2018-12-16T02:06:13.975Z,-2.54
2018-12-16T02:08:41.971Z,-2.63
2018-12-16T02:11:09.497Z,-2.72
2018-12-16T02:13:37.027Z,-2.61
2018-12-16T02:16:04.878Z,-2.60
2018-12-16T02:18:33.105Z,-2.59
2018-12-16T02:21:00.845Z,-2.57
2018-12-16T02:23:28.397Z,-2.66
2018-12-16T02:25:55.942Z,-2.71
2018-12-16T02:28:23.499Z,-2.77
2018-12-16T02:30:51.284Z,-2.72
2018-12-16T02:33:18.844Z,-2.72
2018-12-16T02:35:47.715Z,-2.69
2018-12-16T02:38:15.263Z,-2.65
2018-12-16T02:40:42.794Z,-2.65
2018-12-16T02:43:10.534Z,-2.58
2018-12-16T02:45:38.213Z,-2.57
2018-12-16T02:48:05.846Z,-2.55
2018-12-16T02:50:33.446Z,-2.54
2018-12-16T02:53:04.515Z,-2.47
2018-12-16T02:55:30.672Z,-2.43
2018-12-16T02:57:58.238Z,-2.37
2018-12-16T03:00:25.845Z,-2.29
2018-12-16T03:02:53.537Z,-2.22
2018-12-16T03:05:21.282Z,-2.03
2018-12-16T03:07:48.886Z,-1.90
2018-12-16T03:10:16.427Z,-1.98
2018-12-16T03:12:44.165Z,-1.93
2018-12-16T03:15:11.739Z,-1.93
2018-12-16T03:17:39.292Z,-2.00
2018-12-16T03:20:07.329Z,-1.95
2018-12-16T03:22:34.907Z,-1.81
2018-12-16T03:25:02.744Z,-1.68
2018-12-16T03:27:30.387Z,-1.72
2018-12-16T03:29:57.935Z,-1.79
2018-12-16T03:32:26.193Z,-1.76
2018-12-16T03:34:53.716Z,-1.72
2018-12-16T03:37:21.287Z,-1.67
2018-12-16T03:39:48.910Z,-1.59
2018-12-16T03:42:16.497Z,-1.66
2018-12-16T03:44:44.177Z,-1.64
2018-12-16T03:47:11.769Z,-1.61
2018-12-16T03:49:39.391Z,-1.54
2018-12-16T03:52:07.159Z,-1.56
2018-12-16T03:54:34.893Z,-1.49
2018-12-16T03:57:02.635Z,-1.23
2018-12-16T03:59:31.458Z,-1.28
2018-12-16T04:01:59.172Z,-1.26
2018-12-16T04:04:26.746Z,-1.29
2018-12-16T04:06:54.456Z,-1.33
2018-12-16T04:09:22.008Z,-1.39
2018-12-16T04:11:49.561Z,-1.27
2018-12-16T04:14:17.191Z,-1.31
2018-12-16T04:16:44.795Z,-1.46
2018-12-16T04:19:12.874Z,-1.51
2018-12-16T04:21:40.393Z,-1.57
2018-12-16T04:24:08.090Z,-1.57
2018-12-16T04:26:36.567Z,-1.47
2018-12-16T04:29:04.141Z,-1.38
2018-12-16T04:31:31.685Z,-1.29
2018-12-16T04:34:00.371Z,-1.26
2018-12-16T04:36:27.929Z,-1.41
2018-12-16T04:38:55.519Z,-1.43
2018-12-16T04:41:23.118Z,-1.43
2018-12-16T04:43:50.705Z,-1.45
2018-12-16T04:46:18.254Z,-1.30
2018-12-16T04:48:45.822Z,-1.41
2018-12-16T04:51:13.498Z,-1.28
2018-12-16T04:53:41.174Z,-1.32
2018-12-16T04:56:08.763Z,-1.21
2018-12-16T04:58:36.383Z,-1.20
2018-12-16T05:01:04.022Z,-1.18
2018-12-16T05:03:31.586Z,-1.22
2018-12-16T05:05:59.461Z,-1.17
2018-12-16T05:08:27.025Z,-1.23
2018-12-16T05:10:54.568Z,-1.23
2018-12-16T05:13:22.301Z,-1.22
2018-12-16T05:15:49.839Z,-1.24
2018-12-16T05:18:17.383Z,-1.27
2018-12-16T05:20:45.007Z,-1.18
2018-12-16T05:23:12.566Z,-1.15
2018-12-16T05:25:40.118Z,-1.14
2018-12-16T05:28:08.714Z,-1.12
2018-12-16T05:30:36.264Z,-1.08
2018-12-16T05:33:03.844Z,-1.04
2018-12-16T05:35:31.430Z,-1.00
2018-12-16T05:37:58.970Z,-0.97
2018-12-16T05:40:26.559Z,-0.93
2018-12-16T05:42:54.092Z,-0.92
2018-12-16T05:45:21.668Z,-0.88
2018-12-16T05:47:49.214Z,-0.90
2018-12-16T05:50:17.106Z,-0.84
2018-12-16T05:52:44.673Z,-0.86
2018-12-16T05:55:12.258Z,-0.84
2018-12-16T05:57:40.804Z,-0.76
2018-12-16T06:00:08.609Z,-0.74
2018-12-16T06:02:36.152Z,-0.73
2018-12-16T06:05:03.817Z,-0.79
2018-12-16T06:07:31.698Z,-0.88
2018-12-16T06:09:59.245Z,-0.82
2018-12-16T06:12:26.887Z,-0.88
2018-12-16T06:14:54.794Z,-0.88
2018-12-16T06:17:22.386Z,-0.92
2018-12-16T06:19:49.930Z,-0.98
2018-12-16T06:22:17.631Z,-1.00
2018-12-16T06:24:46.179Z,-1.05
2018-12-16T06:27:13.757Z,-1.05
2018-12-16T06:29:42.532Z,-1.01
2018-12-16T06:32:10.088Z,-1.07
2018-12-16T06:34:37.631Z,-0.98
2018-12-16T06:37:06.069Z,-0.92
2018-12-16T06:39:33.621Z,-0.84
2018-12-16T06:42:02.109Z,-0.86
2018-12-16T06:44:29.693Z,-0.73
2018-12-16T06:46:57.281Z,-0.69
2018-12-16T06:49:24.864Z,-0.70
2018-12-16T06:51:52.401Z,-0.66
2018-12-16T06:54:20.422Z,-0.70
2018-12-16T06:56:47.975Z,-0.66
2018-12-16T06:59:15.626Z,-0.62
2018-12-16T07:01:43.244Z,-0.73
2018-12-16T07:04:11.645Z,-0.77
2018-12-16T07:06:39.320Z,-0.78
2018-12-16T07:09:07.228Z,-0.73
2018-12-16T07:11:34.816Z,-0.69
2018-12-16T07:14:02.413Z,-0.64
2018-12-16T07:16:30.741Z,-0.69
2018-12-16T07:18:58.437Z,-0.65
2018-12-16T07:21:26.031Z,-0.66
2018-12-16T07:23:53.653Z,-0.57
2018-12-16T07:26:21.230Z,-0.61
2018-12-16T07:28:48.841Z,-0.59
2018-12-16T07:31:16.693Z,-0.68
2018-12-16T07:33:44.651Z,-0.68
2018-12-16T07:36:12.412Z,-0.69
2018-12-16T07:38:40.263Z,-0.63
2018-12-16T07:41:07.858Z,-0.60
2018-12-16T07:43:35.597Z,-0.51
2018-12-16T07:46:03.410Z,-0.52
2018-12-16T07:48:31.202Z,-0.55
2018-12-16T07:50:58.771Z,-0.49
2018-12-16T07:53:26.341Z,-0.51
2018-12-16T07:55:54.926Z,-0.49
2018-12-16T07:58:22.601Z,-0.41
2018-12-16T08:00:50.181Z,-0.39
2018-12-16T08:03:17.762Z,-0.38
2018-12-16T08:05:45.360Z,-0.32
2018-12-16T08:08:13.253Z,-0.27
2018-12-16T08:10:40.881Z,-0.29
2018-12-16T08:13:08.665Z,-0.34
2018-12-16T08:15:36.262Z,-0.25
2018-12-16T08:18:03.927Z,-0.17
2018-12-16T08:20:31.498Z,-0.17
2018-12-16T08:22:59.168Z,-0.20
2018-12-16T08:25:26.781Z,-0.11
2018-12-16T08:27:54.355Z,-0.08
2018-12-16T08:30:22.742Z,-0.01
2018-12-16T08:32:50.275Z,0.05
2018-12-16T08:35:17.856Z,0.13
2018-12-16T08:37:45.470Z,0.21
2018-12-16T08:40:13.105Z,0.24
2018-12-16T08:42:40.701Z,0.24
2018-12-16T08:45:08.595Z,0.31
2018-12-16T08:47:36.202Z,0.38
2018-12-16T08:50:03.866Z,0.41
2018-12-16T08:52:31.509Z,0.46
2018-12-16T08:54:59.085Z,0.46
2018-12-16T08:57:26.737Z,0.52
2018-12-16T08:59:54.308Z,0.49
2018-12-16T09:02:21.912Z,0.58
2018-12-16T09:04:49.514Z,0.69
2018-12-16T09:07:17.135Z,0.75
2018-12-16T09:09:45.290Z,0.74
2018-12-16T09:12:13.556Z,0.81
2018-12-16T09:14:41.170Z,0.92
2018-12-16T09:17:09.137Z,0.96
2018-12-16T09:19:36.717Z,1.00
2018-12-16T09:22:04.301Z,0.95
2018-12-16T09:24:37.219Z,1.10
2018-12-16T09:27:02.183Z,1.08
2018-12-16T09:29:29.740Z,1.09
2018-12-16T09:31:57.359Z,1.12
2018-12-16T09:34:25.002Z,1.21
2018-12-16T09:36:52.603Z,1.25
2018-12-16T09:39:20.645Z,1.31
2018-12-16T09:41:48.256Z,1.45
2018-12-16T09:44:15.842Z,1.50
2018-12-16T09:46:43.507Z,1.63
2018-12-16T09:49:11.118Z,1.81
2018-12-16T09:51:38.836Z,1.97
2018-12-16T09:54:06.523Z,2.02
2018-12-16T09:56:34.134Z,1.92
2018-12-16T09:59:02.244Z,1.96
2018-12-16T10:01:29.923Z,2.11
2018-12-16T10:03:57.482Z,2.37
2018-12-16T10:06:25.076Z,2.57
2018-12-16T10:08:52.765Z,2.64
2018-12-16T10:11:20.333Z,2.67
2018-12-16T10:13:47.930Z,2.67
2018-12-16T10:16:16.187Z,2.90
2018-12-16T10:18:43.809Z,3.77
2018-12-16T10:21:11.428Z,5.49
2018-12-16T10:23:38.984Z,6.83
2018-12-16T10:26:06.932Z,7.17
2018-12-16T10:28:34.506Z,6.89
2018-12-16T10:31:02.070Z,5.94
2018-12-16T10:33:29.653Z,5.32
2018-12-16T10:35:57.328Z,4.41
2018-12-16T10:38:24.883Z,3.83
2018-12-16T10:40:52.445Z,3.44
2018-12-16T10:43:19.986Z,3.41
2018-12-16T10:45:47.546Z,3.16
2018-12-16T10:48:15.401Z,3.01
2018-12-16T10:50:42.942Z,2.93
2018-12-16T10:53:10.469Z,2.76
2018-12-16T10:55:38.029Z,2.82
2018-12-16T10:58:05.741Z,3.09
2018-12-16T11:00:40.669Z,3.59
2018-12-16T11:03:08.414Z,3.71
2018-12-16T11:05:36.219Z,3.74
2018-12-16T11:08:04.261Z,3.73
2018-12-16T11:10:31.822Z,3.84
2018-12-16T11:12:59.478Z,3.93
2018-12-16T11:15:27.077Z,3.89
2018-12-16T11:17:54.610Z,4.12
2018-12-16T11:20:22.174Z,4.29
2018-12-16T11:22:50.003Z,4.50
2018-12-16T11:25:17.813Z,4.80
2018-12-16T11:27:45.391Z,4.81
2018-12-16T11:30:13.138Z,4.48
2018-12-16T11:32:40.731Z,4.59
2018-12-16T11:35:08.302Z,4.71
2018-12-16T11:37:35.872Z,5.05
2018-12-16T11:40:03.939Z,5.30
2018-12-16T11:42:31.540Z,5.31
2018-12-16T11:44:59.127Z,5.42
2018-12-16T11:47:26.938Z,5.66
2018-12-16T11:49:54.525Z,5.44
2018-12-16T11:52:22.108Z,5.23
2018-12-16T11:54:49.868Z,5.19
2018-12-16T11:57:17.457Z,5.01
2018-12-16T11:59:45.446Z,5.03
2018-12-16T12:02:13.125Z,4.82
2018-12-16T12:04:40.698Z,5.02
2018-12-16T12:07:08.279Z,5.31
2018-12-16T12:09:35.873Z,5.46
2018-12-16T12:12:03.504Z,5.50
2018-12-16T12:14:31.052Z,5.25
2018-12-16T12:16:58.616Z,5.05
2018-12-16T12:19:30.742Z,4.87
2018-12-16T12:22:04.234Z,4.83
2018-12-16T12:24:27.975Z,4.75
2018-12-16T12:26:55.551Z,4.68
2018-12-16T12:29:23.145Z,4.71
2018-12-16T12:31:50.804Z,4.54
2018-12-16T12:34:18.438Z,4.30
2018-12-16T12:36:46.305Z,4.17
2018-12-16T12:39:13.888Z,4.09
2018-12-16T12:41:41.441Z,4.11
2018-12-16T12:44:09.070Z,3.95
2018-12-16T12:46:36.658Z,3.82
2018-12-16T12:49:04.337Z,3.83
2018-12-16T12:51:31.983Z,3.82
2018-12-16T12:53:59.564Z,3.99
2018-12-16T12:56:27.480Z,4.13
2018-12-16T12:58:55.024Z,4.24
2018-12-16T13:01:22.613Z,4.20
2018-12-16T13:03:50.244Z,4.35
2018-12-16T13:06:18.659Z,4.45
2018-12-16T13:08:46.301Z,4.35
2018-12-16T13:11:13.906Z,4.29
2018-12-16T13:13:41.506Z,4.18
2018-12-16T13:16:09.128Z,4.12
2018-12-16T13:18:36.660Z,4.17
2018-12-16T13:21:04.351Z,4.25
2018-12-16T13:23:31.937Z,4.31
2018-12-16T13:26:04.238Z,4.26
2018-12-16T13:28:31.826Z,4.23
2018-12-16T13:30:59.403Z,4.15
2018-12-16T13:33:26.973Z,4.13
2018-12-16T13:35:54.575Z,4.09
2018-12-16T13:38:22.170Z,4.12
2018-12-16T13:40:49.797Z,4.14
2018-12-16T13:43:17.429Z,4.09
2018-12-16T13:45:45.085Z,4.18
2018-12-16T13:48:12.661Z,4.15
2018-12-16T13:50:40.401Z,4.18
2018-12-16T13:53:08.020Z,4.12
2018-12-16T13:55:40.803Z,4.10
2018-12-16T13:58:05.676Z,4.17
2018-12-16T14:00:34.108Z,4.09
2018-12-16T14:03:01.906Z,4.08
2018-12-16T14:05:29.556Z,4.14
2018-12-16T14:07:57.133Z,4.06
2018-12-16T14:10:24.717Z,4.09
2018-12-16T14:12:52.293Z,4.18
2018-12-16T14:15:19.890Z,4.17
2018-12-16T14:17:47.473Z,4.10
2018-12-16T14:20:15.069Z,4.07
2018-12-16T14:22:42.927Z,3.99
2018-12-16T14:25:10.474Z,3.97
2018-12-16T14:27:38.072Z,4.08
2018-12-16T14:30:06.949Z,4.20
2018-12-16T14:32:34.477Z,4.27
2018-12-16T14:35:02.221Z,4.30
2018-12-16T14:37:29.843Z,4.17
2018-12-16T14:39:57.459Z,4.08
2018-12-16T14:42:25.412Z,4.00
2018-12-16T14:44:52.987Z,3.91
2018-12-16T14:47:20.570Z,3.84
2018-12-16T14:49:48.544Z,3.90
2018-12-16T14:52:16.132Z,3.93
2018-12-16T14:54:43.713Z,3.87
2018-12-16T14:57:11.634Z,3.88
2018-12-16T14:59:39.211Z,3.79
2018-12-16T15:02:06.827Z,3.66
2018-12-16T15:04:34.410Z,3.70
2018-12-16T15:07:02.000Z,3.74
2018-12-16T15:09:29.635Z,3.77
2018-12-16T15:11:57.194Z,3.94
2018-12-16T15:14:24.928Z,3.98
2018-12-16T15:16:52.692Z,3.93
2018-12-16T15:19:20.284Z,3.81
2018-12-16T15:21:47.880Z,3.64
2018-12-16T15:24:15.453Z,3.47
2018-12-16T15:26:43.024Z,3.44
2018-12-16T15:29:10.590Z,3.23
2018-12-16T15:31:38.263Z,2.98
2018-12-16T15:34:05.912Z,2.72
2018-12-16T15:36:33.533Z,2.58
2018-12-16T15:39:01.138Z,2.64
2018-12-16T15:41:28.747Z,2.60
2018-12-16T15:43:56.414Z,2.77
2018-12-16T15:46:23.998Z,2.83
2018-12-16T15:48:52.007Z,2.84
2018-12-16T15:51:19.705Z,2.68
2018-12-16T15:53:47.423Z,2.63
2018-12-16T15:56:15.227Z,2.46
2018-12-16T15:58:42.821Z,2.53
2018-12-16T16:01:10.430Z,2.48
2018-12-16T16:03:38.042Z,2.42
2018-12-16T16:06:05.629Z,2.31
2018-12-16T16:08:33.203Z,2.49
2018-12-16T16:11:01.050Z,2.40
2018-12-16T16:13:28.662Z,2.21
2018-12-16T16:15:56.191Z,2.11
2018-12-16T16:18:23.925Z,1.96
2018-12-16T16:20:51.604Z,2.12
2018-12-16T16:23:19.153Z,2.28
2018-12-16T16:25:46.725Z,2.00
2018-12-16T16:28:14.276Z,2.00
2018-12-16T16:30:41.861Z,1.95
2018-12-16T16:33:09.894Z,1.89
2018-12-16T16:35:37.436Z,1.92
2018-12-16T16:38:05.317Z,2.04
2018-12-16T16:40:33.115Z,2.12
2018-12-16T16:43:00.844Z,1.99
2018-12-16T16:45:28.418Z,1.98
2018-12-16T16:47:55.992Z,1.93
2018-12-16T16:50:23.567Z,1.86
2018-12-16T16:52:51.234Z,1.74
2018-12-16T16:55:19.224Z,1.72
2018-12-16T16:57:46.817Z,1.62
2018-12-16T17:00:14.501Z,1.62
2018-12-16T17:02:42.101Z,1.52
2018-12-16T17:05:09.750Z,1.52
2018-12-16T17:07:37.345Z,1.55
2018-12-16T17:10:05.370Z,1.55
2018-12-16T17:12:33.197Z,1.56
2018-12-16T17:15:00.839Z,1.55
2018-12-16T17:17:28.428Z,1.41
2018-12-16T17:19:56.009Z,1.41
2018-12-16T17:22:23.629Z,1.35
2018-12-16T17:24:51.209Z,1.33
2018-12-16T17:27:18.760Z,1.32
2018-12-16T17:29:46.315Z,1.35
2018-12-16T17:32:14.030Z,1.35
2018-12-16T17:34:41.570Z,1.38
2018-12-16T17:37:09.504Z,1.35
2018-12-16T17:39:37.069Z,1.30
2018-12-16T17:42:04.651Z,1.25
2018-12-16T17:44:32.284Z,1.20
2018-12-16T17:46:59.874Z,1.15
2018-12-16T17:49:27.574Z,1.12
2018-12-16T17:51:55.147Z,1.15
2018-12-16T17:54:22.893Z,1.15
2018-12-16T17:56:50.446Z,1.08
2018-12-16T17:59:18.477Z,1.08
2018-12-16T18:01:46.337Z,1.10
2018-12-16T18:04:13.893Z,0.95
2018-12-16T18:06:41.549Z,0.77
2018-12-16T18:09:09.175Z,0.65
2018-12-16T18:11:36.747Z,0.52
2018-12-16T18:14:04.864Z,0.54
2018-12-16T18:16:32.432Z,0.46
2018-12-16T18:19:00.105Z,0.46
2018-12-16T18:21:27.714Z,0.48
2018-12-16T18:23:55.377Z,0.46
2018-12-16T18:26:22.960Z,0.43
2018-12-16T18:28:51.654Z,0.48
2018-12-16T18:31:19.248Z,0.42
2018-12-16T18:33:46.808Z,0.41
2018-12-16T18:36:14.459Z,0.39
2018-12-16T18:38:42.049Z,0.38
2018-12-16T18:41:09.798Z,0.41
2018-12-16T18:43:37.438Z,0.42
2018-12-16T18:46:05.042Z,0.45
2018-12-16T18:48:32.739Z,0.39
2018-12-16T18:51:00.302Z,0.43
2018-12-16T18:53:27.866Z,0.41
2018-12-16T18:55:55.481Z,0.33
2018-12-16T18:58:23.078Z,0.37
2018-12-16T19:00:50.686Z,0.49
2018-12-16T19:03:18.945Z,0.49
2018-12-16T19:05:46.547Z,0.51
2018-12-16T19:08:14.169Z,0.50
2018-12-16T19:10:41.786Z,0.51
2018-12-16T19:13:09.388Z,0.52
2018-12-16T19:15:36.958Z,0.59
2018-12-16T19:18:04.743Z,0.54
2018-12-16T19:20:32.295Z,0.51
2018-12-16T19:22:59.965Z,0.43
2018-12-16T19:25:27.645Z,0.37
2018-12-16T19:27:55.272Z,0.28
2018-12-16T19:30:22.971Z,0.33
2018-12-16T19:32:50.526Z,0.29
2018-12-16T19:35:18.181Z,0.33
2018-12-16T19:37:45.815Z,0.20
2018-12-16T19:40:13.405Z,0.30
2018-12-16T19:42:41.127Z,0.26
2018-12-16T19:45:08.798Z,0.27
2018-12-16T19:47:36.438Z,0.28
2018-12-16T19:50:04.290Z,0.32
2018-12-16T19:52:31.923Z,0.32
2018-12-16T19:54:59.833Z,0.36
2018-12-16T19:57:27.988Z,0.38
2018-12-16T19:59:55.738Z,0.39
2018-12-16T20:02:23.437Z,0.40
2018-12-16T20:04:56.623Z,0.43
2018-12-16T20:07:24.183Z,0.62
2018-12-16T20:09:51.853Z,0.61
2018-12-16T20:12:19.493Z,0.64
2018-12-16T20:14:47.167Z,0.70
2018-12-16T20:17:14.748Z,0.75
2018-12-16T20:19:42.559Z,0.77
2018-12-16T20:22:10.123Z,0.86
2018-12-16T20:24:37.792Z,1.04
2018-12-16T20:27:11.842Z,1.14
2018-12-16T20:29:36.648Z,1.29
2018-12-16T20:32:04.462Z,1.42
2018-12-16T20:34:32.081Z,1.42
2018-12-16T20:36:59.667Z,1.52
2018-12-16T20:39:27.465Z,1.56
2018-12-16T20:41:55.031Z,1.63
2018-12-16T20:44:23.215Z,1.63
2018-12-16T20:46:51.114Z,1.43
2018-12-16T20:49:18.824Z,1.25
2018-12-16T20:51:46.555Z,1.29
2018-12-16T20:54:14.238Z,1.18
2018-12-16T20:56:41.845Z,1.16
2018-12-16T20:59:09.469Z,1.25
2018-12-16T21:01:37.057Z,1.20
2018-12-16T21:04:04.657Z,1.18
2018-12-16T21:06:32.627Z,1.14
2018-12-16T21:09:00.814Z,1.19
2018-12-16T21:11:34.113Z,1.13
2018-12-16T21:14:07.283Z,1.05
2018-12-16T21:16:40.469Z,1.07
2018-12-16T21:19:08.025Z,1.11
2018-12-16T21:21:35.699Z,1.15
2018-12-16T21:24:03.845Z,1.07
2018-12-16T21:26:31.437Z,0.96
2018-12-16T21:28:59.010Z,0.85
2018-12-16T21:31:26.630Z,0.89
2018-12-16T21:33:54.181Z,0.85
2018-12-16T21:36:21.773Z,0.78
2018-12-16T21:38:49.357Z,0.74
2018-12-16T21:41:16.920Z,0.60
2018-12-16T21:43:44.515Z,0.61
2018-12-16T21:46:12.097Z,0.52
2018-12-16T21:48:39.680Z,0.53
2018-12-16T21:51:07.268Z,0.38
2018-12-16T21:53:34.860Z,0.40
2018-12-16T21:56:02.789Z,0.37
2018-12-16T21:58:30.347Z,0.25
2018-12-16T22:00:57.959Z,0.17
2018-12-16T22:03:25.650Z,0.19
2018-12-16T22:05:53.267Z,0.11
2018-12-16T22:08:20.821Z,0.05
2018-12-16T22:10:48.435Z,0.02
2018-12-16T22:13:16.003Z,-0.05
2018-12-16T22:15:43.581Z,-0.08
2018-12-16T22:18:11.186Z,-0.22
2018-12-16T22:20:38.780Z,-0.15
2018-12-16T22:23:06.338Z,-0.17
2018-12-16T22:25:33.954Z,-0.14
2018-12-16T22:28:01.558Z,-0.17
2018-12-16T22:30:29.141Z,-0.21
2018-12-16T22:32:56.769Z,-0.23
2018-12-16T22:35:24.361Z,-0.24
2018-12-16T22:37:51.893Z,-0.21
2018-12-16T22:40:19.838Z,-0.20
2018-12-16T22:42:47.394Z,-0.23
2018-12-16T22:45:14.977Z,-0.31
2018-12-16T22:47:42.585Z,-0.30
2018-12-16T22:50:10.109Z,-0.31
2018-12-16T22:52:37.761Z,-0.36
2018-12-16T22:55:05.693Z,-0.45
2018-12-16T22:57:33.325Z,-0.51
2018-12-16T23:00:00.975Z,-0.55
2018-12-16T23:02:28.529Z,-0.58
2018-12-16T23:04:56.111Z,-0.60
2018-12-16T23:07:23.686Z,-0.66
2018-12-16T23:09:51.234Z,-0.66
2018-12-16T23:12:18.825Z,-0.60
2018-12-16T23:14:46.352Z,-0.61
2018-12-16T23:17:14.009Z,-0.63
2018-12-16T23:19:43.691Z,-0.67
2018-12-16T23:22:11.280Z,-0.71
2018-12-16T23:24:39.359Z,-0.71
2018-12-16T23:27:07.728Z,-0.74
2018-12-16T23:29:35.285Z,-0.74
2018-12-16T23:32:02.848Z,-0.70
2018-12-16T23:34:30.743Z,-0.58
2018-12-16T23:36:58.309Z,-0.45
2018-12-16T23:39:26.071Z,-0.20
2018-12-16T23:41:53.913Z,-0.11
2018-12-16T23:44:22.276Z,-0.01
2018-12-16T23:46:49.837Z,-0.01
2018-12-16T23:49:17.724Z,-0.03
2018-12-16T23:51:45.291Z,-0.02
2018-12-16T23:54:12.850Z,-0.04
2018-12-16T23:56:40.381Z,0.16
2018-12-16T23:59:08.526Z,0.18
